createdAt,value
2019-04-04T00:01:47.764Z,44.51
2019-04-04T00:04:17.231Z,44.84
2019-04-04T00:06:48.600Z,45.00
2019-04-04T00:09:29.142Z,45.29
2019-04-04T00:11:59.556Z,45.10
2019-04-04T00:14:29.907Z,45.25
2019-04-04T00:17:00.353Z,45.23
2019-04-04T00:19:30.815Z,45.27
2019-04-04T00:22:04.632Z,45.33
2019-04-04T00:24:39.612Z,45.43
2019-04-04T00:27:13.738Z,45.64
2019-04-04T00:29:47.968Z,45.85
2019-04-04T00:32:20.827Z,46.22
2019-04-04T00:34:50.887Z,46.10
2019-04-04T00:37:21.259Z,46.38
2019-04-04T00:39:51.791Z,46.47
2019-04-04T00:42:22.409Z,46.91
2019-04-04T00:44:53.873Z,46.94
2019-04-04T00:47:25.385Z,47.37
2019-04-04T00:49:55.991Z,47.64
2019-04-04T00:52:26.583Z,48.69
2019-04-04T00:54:57.044Z,48.67
2019-04-04T00:57:27.671Z,49.32
2019-04-04T00:59:58.227Z,49.85
2019-04-04T01:02:28.787Z,50.05
2019-04-04T01:05:01.274Z,50.37
2019-04-04T01:07:31.027Z,50.59
2019-04-04T01:10:01.419Z,51.22
2019-04-04T01:12:31.891Z,51.17
2019-04-04T01:15:02.380Z,51.58
2019-04-04T01:17:35.068Z,51.94
2019-04-04T01:20:07.096Z,51.93
2019-04-04T01:22:37.886Z,52.20
2019-04-04T01:25:09.282Z,52.55
2019-04-04T01:27:39.756Z,53.34
2019-04-04T01:30:12.566Z,53.35
2019-04-04T01:32:42.269Z,53.60
2019-04-04T01:35:12.886Z,54.29
2019-04-04T01:37:43.235Z,54.31
2019-04-04T01:40:13.840Z,54.38
2019-04-04T01:42:44.278Z,54.81
2019-04-04T01:45:15.226Z,55.25
2019-04-04T01:47:47.673Z,55.44
2019-04-04T01:50:17.715Z,55.54
2019-04-04T01:52:48.097Z,55.74
2019-04-04T01:55:18.714Z,55.85
2019-04-04T01:57:49.588Z,55.86
2019-04-04T02:00:19.990Z,56.08
2019-04-04T02:02:51.829Z,56.33
2019-04-04T02:05:22.717Z,56.50
2019-04-04T02:07:53.210Z,56.60
2019-04-04T02:10:24.070Z,56.77
2019-04-04T02:12:54.509Z,57.07
2019-04-04T02:15:24.875Z,57.13
2019-04-04T02:17:55.470Z,57.55
2019-04-04T02:20:26.957Z,57.33
2019-04-04T02:23:01.225Z,57.33
2019-04-04T02:25:30.227Z,57.05
2019-04-04T02:28:00.708Z,57.12
2019-04-04T02:30:31.372Z,57.71
2019-04-04T02:33:01.881Z,57.58
2019-04-04T02:35:33.189Z,57.87
2019-04-04T02:38:03.737Z,57.68
2019-04-04T02:40:34.211Z,57.78
2019-04-04T02:43:04.517Z,57.58
2019-04-04T02:45:37.748Z,57.55
2019-04-04T02:48:07.449Z,57.42
2019-04-04T02:50:37.839Z,57.73
2019-04-04T02:53:08.178Z,57.74
2019-04-04T02:55:39.807Z,58.19
2019-04-04T02:58:13.944Z,58.13
2019-04-04T03:00:42.522Z,58.09
2019-04-04T03:03:13.165Z,58.49
2019-04-04T03:05:43.821Z,58.52
2019-04-04T03:08:14.300Z,58.46
2019-04-04T03:10:47.850Z,58.72
2019-04-04T03:13:17.135Z,58.58
2019-04-04T03:15:48.299Z,59.21
2019-04-04T03:18:18.960Z,58.86
2019-04-04T03:20:50.599Z,58.43
2019-04-04T03:23:22.132Z,58.46
2019-04-04T03:25:52.620Z,59.19
2019-04-04T03:28:23.097Z,58.76
2019-04-04T03:31:01.794Z,58.97
2019-04-04T03:33:31.598Z,59.12
2019-04-04T03:36:01.033Z,58.88
2019-04-04T03:38:30.941Z,59.24
2019-04-04T03:41:01.140Z,59.28
2019-04-04T03:43:31.408Z,59.07
2019-04-04T03:46:01.921Z,59.32
2019-04-04T03:48:33.661Z,59.86
2019-04-04T03:51:05.208Z,60.37
2019-04-04T03:53:36.055Z,60.59
2019-04-04T03:56:06.421Z,60.27
2019-04-04T03:58:36.773Z,59.48
2019-04-04T04:01:12.097Z,59.62
2019-04-04T04:03:39.852Z,59.25
2019-04-04T04:06:10.300Z,58.46
2019-04-04T04:08:40.528Z,58.18
2019-04-04T04:11:10.934Z,57.76
2019-04-04T04:13:41.605Z,57.87
2019-04-04T04:16:12.122Z,57.29
2019-04-04T04:18:42.462Z,56.97
2019-04-04T04:21:13.051Z,56.84
2019-04-04T04:23:43.514Z,56.45
2019-04-04T04:26:13.509Z,56.33
2019-04-04T04:28:44.068Z,56.44
2019-04-04T04:31:15.429Z,56.10
2019-04-04T04:33:46.469Z,55.57
2019-04-04T04:36:17.020Z,55.93
2019-04-04T04:38:47.289Z,56.13
2019-04-04T04:41:20.450Z,55.90
2019-04-04T04:43:49.586Z,56.00
2019-04-04T04:46:20.377Z,57.32
2019-04-04T04:48:50.713Z,57.50
2019-04-04T04:51:21.244Z,57.25
2019-04-04T04:53:52.016Z,58.27
2019-04-04T04:56:22.718Z,57.96
2019-04-04T04:58:55.534Z,57.97
2019-04-04T05:01:25.193Z,58.00
2019-04-04T05:03:56.543Z,57.95
2019-04-04T05:06:27.880Z,57.36
2019-04-04T05:08:58.242Z,57.33
2019-04-04T05:11:29.058Z,57.15
2019-04-04T05:13:59.790Z,57.36
2019-04-04T05:16:30.199Z,57.17
2019-04-04T05:19:00.701Z,57.01
2019-04-04T05:21:33.856Z,57.84
2019-04-04T05:24:03.247Z,58.14
2019-04-04T05:26:34.488Z,58.20
2019-04-04T05:29:05.823Z,58.45
2019-04-04T05:31:36.111Z,58.40
2019-04-04T05:34:06.768Z,58.62
2019-04-04T05:36:37.204Z,58.77
2019-04-04T05:39:08.359Z,58.68
2019-04-04T05:41:38.779Z,59.02
2019-04-04T05:44:10.310Z,58.70
2019-04-04T05:46:40.908Z,58.63
2019-04-04T05:49:11.187Z,58.45
2019-04-04T05:51:41.838Z,58.58
2019-04-04T05:54:12.559Z,59.38
2019-04-04T05:56:44.541Z,58.75
2019-04-04T05:59:15.060Z,59.32
2019-04-04T06:01:46.801Z,59.53
2019-04-04T06:04:19.632Z,60.03
2019-04-04T06:06:49.885Z,59.06
2019-04-04T06:09:20.449Z,59.50
2019-04-04T06:11:53.025Z,59.47
2019-04-04T06:14:22.948Z,59.28
2019-04-04T06:16:53.009Z,59.10
2019-04-04T06:19:23.832Z,58.29
2019-04-04T06:21:54.521Z,57.74
2019-04-04T06:24:25.192Z,58.11
2019-04-04T06:26:57.136Z,57.48
2019-04-04T06:29:27.740Z,56.80
2019-04-04T06:32:00.473Z,56.21
2019-04-04T06:34:30.421Z,56.63
2019-04-04T06:37:01.260Z,56.20
2019-04-04T06:39:31.654Z,56.44
2019-04-04T06:42:03.245Z,56.05
2019-04-04T06:44:35.130Z,56.15
2019-04-04T06:47:06.024Z,55.53
2019-04-04T06:49:36.621Z,56.72
2019-04-04T06:52:09.258Z,56.17
2019-04-04T06:54:39.100Z,55.53
2019-04-04T06:57:09.442Z,56.08
2019-04-04T06:59:42.888Z,55.79
2019-04-04T07:02:11.810Z,56.11
2019-04-04T07:04:42.436Z,55.75
2019-04-04T07:07:13.162Z,55.73
2019-04-04T07:09:43.689Z,55.28
2019-04-04T07:12:22.413Z,54.60
2019-04-04T07:14:49.432Z,54.35
2019-04-04T07:17:18.911Z,54.46
2019-04-04T07:19:49.544Z,54.39
2019-04-04T07:22:20.606Z,54.53
2019-04-04T07:24:51.661Z,53.87
2019-04-04T07:27:22.297Z,54.51
2019-04-04T07:29:56.535Z,54.67
2019-04-04T07:32:25.843Z,55.10
2019-04-04T07:34:56.470Z,54.47
2019-04-04T07:37:27.187Z,53.60
2019-04-04T07:39:57.776Z,53.51
2019-04-04T07:42:28.103Z,53.59
2019-04-04T07:44:58.725Z,54.03
2019-04-04T07:47:29.194Z,53.91
2019-04-04T07:49:59.576Z,53.04
2019-04-04T07:52:32.764Z,52.76
2019-04-04T07:55:01.949Z,52.54
2019-04-04T07:57:32.429Z,52.97
2019-04-04T08:00:03.067Z,52.50
2019-04-04T08:02:35.367Z,51.38
2019-04-04T08:05:06.298Z,51.16
2019-04-04T08:07:36.768Z,52.30
2019-04-04T08:10:19.527Z,51.42
2019-04-04T08:12:40.105Z,50.87
2019-04-04T08:15:10.678Z,50.34
2019-04-04T08:17:41.129Z,49.76
2019-04-04T08:20:11.909Z,48.93
2019-04-04T08:22:43.412Z,48.51
2019-04-04T08:25:14.051Z,48.20
2019-04-04T08:27:44.392Z,48.16
2019-04-04T08:30:15.085Z,48.43
2019-04-04T08:32:45.581Z,48.47
2019-04-04T08:35:15.984Z,48.35
2019-04-04T08:37:46.424Z,47.89
2019-04-04T08:40:18.094Z,47.37
2019-04-04T08:42:48.919Z,46.85
2019-04-04T08:45:19.495Z,46.21
2019-04-04T08:47:50.631Z,45.69
2019-04-04T08:50:22.123Z,45.29
2019-04-04T08:52:52.538Z,45.23
2019-04-04T08:55:23.139Z,44.67
2019-04-04T08:57:53.738Z,44.82
2019-04-04T09:00:24.121Z,44.04
2019-04-04T09:02:54.750Z,43.87
2019-04-04T09:05:25.395Z,43.87
2019-04-04T09:07:56.029Z,44.55
2019-04-04T09:10:26.492Z,44.82
2019-04-04T09:12:56.925Z,45.09
2019-04-04T09:15:27.530Z,45.05
2019-04-04T09:17:57.910Z,45.69
2019-04-04T09:20:28.394Z,45.82
2019-04-04T09:22:59.112Z,45.11
2019-04-04T09:25:29.539Z,45.57
2019-04-04T09:28:00.027Z,46.31
2019-04-04T09:30:30.604Z,46.15
2019-04-04T09:33:01.395Z,46.18
2019-04-04T09:35:32.172Z,45.56
2019-04-04T09:38:02.944Z,44.78
2019-04-04T09:40:33.623Z,44.42
2019-04-04T09:43:04.180Z,44.46
2019-04-04T09:45:34.604Z,44.36
2019-04-04T09:48:05.405Z,44.38
2019-04-04T09:50:36.031Z,44.25
2019-04-04T09:53:06.982Z,43.17
2019-04-04T09:55:37.423Z,42.92
2019-04-04T09:58:07.995Z,42.29
2019-04-04T10:00:38.603Z,43.18
2019-04-04T10:03:09.259Z,41.87
2019-04-04T10:05:39.669Z,40.95
2019-04-04T10:08:10.130Z,41.17
2019-04-04T10:10:40.743Z,40.72
2019-04-04T10:13:11.017Z,41.51
2019-04-04T10:15:41.455Z,41.86
2019-04-04T10:18:12.057Z,41.48
2019-04-04T10:20:42.604Z,41.18
2019-04-04T10:23:13.300Z,39.74
2019-04-04T10:25:43.726Z,39.77
2019-04-04T10:28:15.453Z,38.95
2019-04-04T10:30:46.208Z,37.97
2019-04-04T10:33:16.522Z,37.03
2019-04-04T10:35:47.166Z,35.86
2019-04-04T10:38:17.526Z,35.24
2019-04-04T10:40:48.402Z,34.68
2019-04-04T10:43:18.994Z,34.59
2019-04-04T10:45:49.970Z,34.54
2019-04-04T10:48:20.612Z,34.61
2019-04-04T10:50:51.486Z,34.47
2019-04-04T10:53:21.983Z,34.64
2019-04-04T10:55:52.733Z,34.39
2019-04-04T10:58:23.386Z,35.26
2019-04-04T11:00:53.974Z,34.85
2019-04-04T11:03:24.551Z,34.53
2019-04-04T11:05:55.017Z,33.78
2019-04-04T11:08:25.434Z,33.45
2019-04-04T11:10:58.767Z,33.25
2019-04-04T11:13:33.750Z,33.89
2019-04-04T11:15:59.996Z,33.34
2019-04-04T11:18:31.763Z,32.75
2019-04-04T11:21:02.233Z,33.01
2019-04-04T11:23:32.508Z,32.04
2019-04-04T11:26:03.150Z,31.64
2019-04-04T11:28:33.747Z,31.15
2019-04-04T11:31:04.610Z,30.86
2019-04-04T11:33:35.248Z,31.43
2019-04-04T11:36:06.045Z,31.41
2019-04-04T11:38:36.654Z,32.32
2019-04-04T11:41:07.128Z,32.25
2019-04-04T11:43:37.581Z,32.09
2019-04-04T11:46:08.984Z,30.93
2019-04-04T11:48:39.595Z,30.67
2019-04-04T11:51:09.952Z,29.92
2019-04-04T11:53:40.633Z,29.23
2019-04-04T11:56:11.057Z,29.44
2019-04-04T11:58:42.028Z,29.96
2019-04-04T12:01:12.705Z,29.30
2019-04-04T12:03:43.284Z,29.07
2019-04-04T12:06:14.025Z,28.72
2019-04-04T12:08:44.665Z,28.23
2019-04-04T12:11:14.838Z,28.17
2019-04-04T12:13:45.464Z,27.93
2019-04-04T12:16:15.743Z,26.99
2019-04-04T12:18:46.338Z,26.63
2019-04-04T12:21:16.860Z,26.14
2019-04-04T12:23:47.758Z,26.37
2019-04-04T12:26:18.399Z,26.27
2019-04-04T12:28:48.926Z,25.85
2019-04-04T12:31:19.310Z,25.18
2019-04-04T12:33:49.521Z,24.30
2019-04-04T12:36:24.765Z,23.94
2019-04-04T12:38:51.841Z,24.93
2019-04-04T12:41:22.306Z,24.48
2019-04-04T12:43:52.925Z,25.77
2019-04-04T12:46:23.048Z,24.62
2019-04-04T12:48:53.693Z,24.37
2019-04-04T12:51:24.072Z,24.00
2019-04-04T12:53:54.672Z,23.62
2019-04-04T12:56:25.541Z,24.04
2019-04-04T12:58:56.207Z,24.98
2019-04-04T13:01:26.751Z,23.83
2019-04-04T13:03:57.653Z,23.33
2019-04-04T13:06:28.152Z,23.52
2019-04-04T13:08:58.488Z,23.38
2019-04-04T13:11:28.865Z,23.43
2019-04-04T13:13:59.440Z,23.22
2019-04-04T13:16:31.035Z,24.08
2019-04-04T13:19:01.643Z,24.14
2019-04-04T13:21:32.027Z,23.50
2019-04-04T13:24:02.496Z,24.10
2019-04-04T13:26:32.895Z,24.69
2019-04-04T13:29:03.537Z,24.98
2019-04-04T13:31:34.900Z,26.63
2019-04-04T13:34:05.441Z,27.76
2019-04-04T13:36:36.814Z,28.55
2019-04-04T13:39:09.875Z,28.93
2019-04-04T13:41:40.464Z,29.54
2019-04-04T13:44:10.821Z,30.63
2019-04-04T13:46:41.334Z,30.32
2019-04-04T13:49:11.938Z,30.24
2019-04-04T13:51:42.741Z,30.62
2019-04-04T13:54:13.052Z,30.74
2019-04-04T13:56:43.610Z,30.74
2019-04-04T13:59:14.438Z,31.31
2019-04-04T14:01:44.986Z,31.53
2019-04-04T14:04:15.738Z,32.18
2019-04-04T14:06:46.410Z,32.15
2019-04-04T14:09:16.915Z,32.28
2019-04-04T14:11:47.633Z,32.77
2019-04-04T14:14:18.056Z,32.88
2019-04-04T14:16:48.601Z,33.38
2019-04-04T14:19:19.343Z,34.17
2019-04-04T14:21:49.847Z,33.94
2019-04-04T14:24:20.320Z,34.06
2019-04-04T14:26:51.001Z,33.66
2019-04-04T14:29:27.706Z,32.90
2019-04-04T14:31:53.960Z,32.31
2019-04-04T14:34:24.350Z,32.74
2019-04-04T14:36:54.793Z,32.16
2019-04-04T14:39:25.211Z,32.36
2019-04-04T14:41:56.001Z,30.70
2019-04-04T14:44:28.074Z,30.53
2019-04-04T14:46:58.800Z,30.05
2019-04-04T14:49:29.311Z,29.97
2019-04-04T14:51:59.977Z,29.73
2019-04-04T14:54:30.339Z,30.16
2019-04-04T14:57:00.808Z,30.98
2019-04-04T14:59:31.123Z,30.58
2019-04-04T15:02:01.719Z,30.18
2019-04-04T15:04:32.339Z,29.82
2019-04-04T15:07:02.974Z,29.64
2019-04-04T15:09:33.735Z,30.70
2019-04-04T15:12:04.149Z,30.94
2019-04-04T15:14:34.635Z,31.55
2019-04-04T15:17:05.145Z,31.57
2019-04-04T15:19:35.813Z,31.17
2019-04-04T15:22:06.378Z,31.88
2019-04-04T15:24:36.702Z,31.87
2019-04-04T15:27:07.175Z,32.24
2019-04-04T15:29:37.680Z,32.26
2019-04-04T15:32:08.185Z,32.27
2019-04-04T15:34:38.791Z,32.47
2019-04-04T15:37:09.341Z,32.33
2019-04-04T15:39:40.370Z,32.33
2019-04-04T15:42:10.936Z,32.29
2019-04-04T15:44:41.532Z,32.27
2019-04-04T15:47:11.908Z,32.60
2019-04-04T15:49:42.140Z,32.63
2019-04-04T15:52:12.770Z,33.09
2019-04-04T15:54:43.440Z,33.00
2019-04-04T15:57:13.842Z,32.83
2019-04-04T15:59:44.132Z,32.94
2019-04-04T16:02:14.343Z,32.75
2019-04-04T16:04:44.814Z,33.01
2019-04-04T16:07:15.350Z,33.88
2019-04-04T16:09:45.954Z,34.70
2019-04-04T16:12:16.474Z,35.19
2019-04-04T16:14:47.146Z,35.64
2019-04-04T16:17:17.512Z,36.16
2019-04-04T16:19:47.632Z,36.34
2019-04-04T16:22:18.242Z,36.83
2019-04-04T16:24:48.800Z,36.57
2019-04-04T16:27:19.670Z,36.53
2019-04-04T16:29:50.287Z,36.81
2019-04-04T16:32:20.992Z,37.44
2019-04-04T16:34:52.715Z,38.22
2019-04-04T16:37:23.275Z,38.53
2019-04-04T16:39:53.867Z,38.80
2019-04-04T16:42:24.112Z,39.15
2019-04-04T16:44:54.382Z,39.60
2019-04-04T16:47:24.918Z,39.36
2019-04-04T16:49:55.397Z,39.31
2019-04-04T16:52:26.136Z,39.09
2019-04-04T16:54:56.718Z,39.31
2019-04-04T16:57:28.376Z,39.12
2019-04-04T16:59:58.986Z,39.37
2019-04-04T17:02:29.440Z,39.69
2019-04-04T17:05:00.059Z,39.93
2019-04-04T17:07:30.735Z,40.38
2019-04-04T17:10:01.256Z,40.63
2019-04-04T17:12:31.735Z,40.98
2019-04-04T17:15:02.065Z,41.15
2019-04-04T17:17:36.005Z,41.11
2019-04-04T17:20:07.377Z,41.37
2019-04-04T17:22:38.790Z,41.30
2019-04-04T17:25:09.674Z,41.45
2019-04-04T17:27:41.708Z,41.72
2019-04-04T17:30:12.797Z,41.81
2019-04-04T17:32:43.604Z,41.75
2019-04-04T17:35:14.233Z,41.92
2019-04-04T17:37:44.681Z,42.10
2019-04-04T17:40:15.279Z,42.42
2019-04-04T17:42:46.192Z,42.22
2019-04-04T17:45:17.299Z,42.53
2019-04-04T17:47:48.021Z,42.69
2019-04-04T17:50:19.506Z,42.81
2019-04-04T17:52:50.635Z,42.88
2019-04-04T17:55:21.865Z,42.98
2019-04-04T17:57:52.721Z,43.38
2019-04-04T18:00:23.996Z,43.39
2019-04-04T18:02:55.063Z,43.75
2019-04-04T18:05:25.789Z,43.97
2019-04-04T18:07:56.396Z,44.04
2019-04-04T18:10:27.114Z,43.91
2019-04-04T18:12:57.664Z,44.02
2019-04-04T18:15:28.500Z,44.50
2019-04-04T18:17:58.913Z,44.83
2019-04-04T18:20:29.429Z,45.06
2019-04-04T18:22:59.903Z,45.24
2019-04-04T18:25:30.337Z,45.38
2019-04-04T18:28:00.964Z,45.95
2019-04-04T18:30:32.416Z,45.65
2019-04-04T18:33:02.937Z,45.59
2019-04-04T18:35:33.679Z,45.96
2019-04-04T18:38:04.568Z,46.25
2019-04-04T18:40:35.383Z,46.58
2019-04-04T18:43:06.117Z,46.46
2019-04-04T18:45:36.746Z,46.89
2019-04-04T18:48:07.268Z,47.01
2019-04-04T18:50:37.716Z,46.96
2019-04-04T18:53:08.411Z,46.69
2019-04-04T18:55:38.988Z,47.13
2019-04-04T18:58:09.667Z,47.44
2019-04-04T19:00:40.408Z,47.24
2019-04-04T19:03:11.078Z,47.37
2019-04-04T19:05:41.661Z,47.90
2019-04-04T19:08:12.161Z,48.00
2019-04-04T19:10:42.922Z,48.08
2019-04-04T19:13:13.806Z,48.09
2019-04-04T19:15:44.241Z,48.23
2019-04-04T19:18:14.355Z,48.26
2019-04-04T19:20:44.937Z,48.69
2019-04-04T19:23:15.123Z,48.67
2019-04-04T19:25:45.679Z,48.68
2019-04-04T19:28:16.000Z,48.32
2019-04-04T19:30:46.197Z,48.68
2019-04-04T19:33:16.665Z,48.59
2019-04-04T19:35:47.018Z,48.64
2019-04-04T19:38:17.689Z,48.55
2019-04-04T19:40:48.358Z,48.97
2019-04-04T19:43:19.055Z,48.90
2019-04-04T19:45:49.679Z,49.04
2019-04-04T19:48:21.282Z,48.83
2019-04-04T19:50:52.187Z,48.76
2019-04-04T19:53:22.831Z,48.65
2019-04-04T19:55:53.292Z,48.33
2019-04-04T19:58:24.029Z,48.23
2019-04-04T20:00:54.583Z,48.15
2019-04-04T20:03:25.502Z,48.20
2019-04-04T20:05:55.881Z,48.28
2019-04-04T20:08:26.487Z,48.51
2019-04-04T20:10:57.065Z,48.06
2019-04-04T20:13:31.299Z,48.14
2019-04-04T20:15:59.918Z,48.30
2019-04-04T20:18:30.376Z,48.21
2019-04-04T20:21:00.840Z,48.33
2019-04-04T20:23:31.141Z,47.94
2019-04-04T20:26:01.712Z,48.10
2019-04-04T20:28:32.497Z,48.78
2019-04-04T20:31:03.072Z,48.47
2019-04-04T20:33:33.702Z,48.71
2019-04-04T20:36:04.452Z,49.55
2019-04-04T20:38:34.800Z,51.27
2019-04-04T20:41:05.379Z,51.28
2019-04-04T20:43:43.339Z,52.13
2019-04-04T20:46:07.552Z,52.41
2019-04-04T20:48:37.998Z,53.31
2019-04-04T20:51:08.282Z,53.74
2019-04-04T20:53:38.714Z,54.03
2019-04-04T20:56:09.231Z,53.36
2019-04-04T20:58:39.624Z,53.35
2019-04-04T21:01:09.871Z,53.54
2019-04-04T21:03:40.619Z,52.61
2019-04-04T21:06:11.271Z,52.54
2019-04-04T21:08:41.956Z,52.70
2019-04-04T21:11:15.324Z,51.92
2019-04-04T21:13:55.627Z,52.16
2019-04-04T21:16:17.732Z,51.99
2019-04-04T21:18:48.047Z,52.60
2019-04-04T21:21:19.674Z,52.27
2019-04-04T21:23:50.211Z,51.82
2019-04-04T21:26:20.463Z,51.52
2019-04-04T21:28:50.965Z,51.28
2019-04-04T21:31:21.463Z,51.22
2019-04-04T21:33:51.987Z,51.02
2019-04-04T21:36:22.553Z,50.92
2019-04-04T21:38:52.767Z,50.94
2019-04-04T21:41:23.028Z,50.79
2019-04-04T21:43:53.447Z,50.88
2019-04-04T21:46:23.620Z,50.91
2019-04-04T21:48:53.938Z,50.86
2019-04-04T21:51:24.505Z,51.21
2019-04-04T21:53:55.048Z,51.36
2019-04-04T21:56:25.735Z,51.52
2019-04-04T21:58:56.136Z,51.46
2019-04-04T22:01:26.468Z,51.37
2019-04-04T23:42:51.382Z,54.54
2019-04-04T23:45:22.447Z,54.57
2019-04-04T23:47:53.702Z,54.36
2019-04-04T23:50:24.989Z,54.28
2019-04-04T23:52:56.276Z,54.46
2019-04-04T23:55:27.717Z,54.38
2019-04-04T23:57:58.825Z,54.47
